Time;durP1;ratioP1;P1;durP2;ratioP2;P2;SDS_P1;SDS_P2;PMS_P1;PMS_P2;Temp;Humidity;BMP_temperature;BMP_pressure;BME280_temperature;BME280_humidity;BME280_pressure;Samples;Min_cycle;Max_cycle;Signal;HPM_P1;HPM_P2
2022/01/15 00:01:25;;;;;;;15.70;7.82;;;;;;;;;;4805461;28;20161;-69
2022/01/15 00:03:52;;;;;;;16.65;7.93;;;;;;;;;;4803679;28;20470;-68
2022/01/15 00:06:20;;;;;;;15.65;7.40;;;;;;;;;;4803511;28;21515;-67
2022/01/15 00:08:48;;;;;;;14.27;7.10;;;;;;;;;;4803098;28;23094;-67
2022/01/15 00:11:15;;;;;;;13.73;6.40;;;;;;;;;;4805996;28;20097;-68
2022/01/15 00:13:44;;;;;;;13.30;5.95;;;;;;;;;;4806337;28;21616;-68
2022/01/15 00:16:24;;;;;;;11.95;5.03;;;;;;;;;;4805379;28;20346;-67
2022/01/15 00:19:11;;;;;;;12.07;4.50;;;;;;;;;;4802901;28;20621;-67
2022/01/15 00:21:37;;;;;;;11.20;4.55;;;;;;;;;;4803020;28;20188;-67
2022/01/15 00:24:04;;;;;;;12.55;4.15;;;;;;;;;;4794097;28;20564;-67
2022/01/15 00:26:31;;;;;;;11.73;4.63;;;;;;;;;;4803405;28;20685;-67
2022/01/15 00:28:59;;;;;;;10.57;4.05;;;;;;;;;;4804489;28;20784;-68
2022/01/15 00:31:26;;;;;;;10.25;4.13;;;;;;;;;;4792441;28;20050;-68
2022/01/15 00:33:53;;;;;;;11.77;4.32;;;;;;;;;;4804921;28;20103;-68
2022/01/15 00:36:21;;;;;;;12.23;4.03;;;;;;;;;;4805040;28;20151;-68
2022/01/15 00:38:49;;;;;;;12.27;4.00;;;;;;;;;;4803595;28;20635;-68
2022/01/15 00:41:18;;;;;;;9.50;3.53;;;;;;;;;;4806840;28;20448;-68
2022/01/15 00:43:45;;;;;;;11.23;4.35;;;;;;;;;;4804308;28;20054;-68
2022/01/15 00:46:13;;;;;;;11.38;4.00;;;;;;;;;;4806929;28;20041;-68
2022/01/15 00:48:39;;;;;;;10.95;3.92;;;;;;;;;;4805667;28;20038;-67
2022/01/15 00:51:07;;;;;;;10.40;3.67;;;;;;;;;;4809929;28;20026;-67
2022/01/15 00:53:35;;;;;;;10.38;3.72;;;;;;;;;;4806578;28;20652;-68
2022/01/15 00:56:02;;;;;;;10.35;3.88;;;;;;;;;;4810056;28;20406;-67
2022/01/15 00:58:32;;;;;;;12.18;4.03;;;;;;;;;;4805779;28;20044;-67
2022/01/15 01:01:02;;;;;;;9.27;3.55;;;;;;;;;;4805733;28;20049;-68
2022/01/15 01:03:28;;;;;;;11.20;4.13;;;;;;;;;;4803368;28;20048;-68
2022/01/15 01:05:54;;;;;;;10.32;3.38;;;;;;;;;;4807395;28;20030;-68
2022/01/15 01:08:23;;;;;;;10.48;3.38;;;;;;;;;;4804081;28;21059;-69
2022/01/15 01:10:57;;;;;;;10.25;3.80;;;;;;;;;;4804716;28;20473;-69
2022/01/15 01:13:41;;;;;;;12.45;3.97;;;;;;;;;;4804637;28;20135;-69
2022/01/15 01:24:15;;;;;;;9.13;3.50;;;;;;;;;;4804353;28;20371;-69
2022/01/15 01:26:53;;;;;;;11.48;4.15;;;;;;;;;;4794160;28;20029;-68
2022/01/15 01:32:00;;;;;;;9.43;3.42;;;;;;;;;;4803996;28;20053;-67
2022/01/15 01:34:30;;;;;;;10.50;3.75;;;;;;;;;;4802840;28;20052;-67
2022/01/15 01:39:38;;;;;;;9.35;3.03;;;;;;;;;;4809645;28;20036;-68
2022/01/15 01:42:37;;;;;;;9.05;3.33;;;;;;;;;;4793927;28;20793;-67
2022/01/15 01:45:15;;;;;;;10.68;3.60;;;;;;;;;;4807427;28;20049;-67
2022/01/15 01:47:42;;;;;;;10.68;3.53;;;;;;;;;;4809138;28;21891;-68
2022/01/15 01:50:23;;;;;;;12.32;3.25;;;;;;;;;;4807910;28;20694;-67
2022/01/15 01:52:50;;;;;;;10.25;3.53;;;;;;;;;;4806104;28;20538;-68
2022/01/15 01:55:18;;;;;;;11.20;3.72;;;;;;;;;;4806940;28;20044;-67
2022/01/15 01:57:45;;;;;;;8.95;3.20;;;;;;;;;;4807073;28;20814;-66
2022/01/15 02:00:14;;;;;;;10.52;3.55;;;;;;;;;;4781464;28;20722;-67
2022/01/15 02:02:42;;;;;;;11.10;3.97;;;;;;;;;;4790336;28;22744;-67
2022/01/15 02:05:10;;;;;;;11.50;3.70;;;;;;;;;;4811016;28;21401;-67
2022/01/15 02:07:40;;;;;;;10.15;3.42;;;;;;;;;;4809712;28;21707;-69
2022/01/15 02:10:09;;;;;;;9.38;3.50;;;;;;;;;;4809029;28;20091;-69
2022/01/15 02:12:41;;;;;;;9.60;3.30;;;;;;;;;;4806441;28;20335;-68
2022/01/15 02:15:40;;;;;;;9.77;3.55;;;;;;;;;;4804729;28;20040;-67
2022/01/15 02:18:08;;;;;;;11.18;4.03;;;;;;;;;;4803661;28;20461;-70
2022/01/15 02:23:31;;;;;;;10.38;3.65;;;;;;;;;;4803888;28;20045;-69
2022/01/15 02:23:33;;;;;;;9.50;3.60;;;;;;;;;;4796600;28;20038;-67
2022/01/15 02:26:03;;;;;;;10.30;3.70;;;;;;;;;;4804635;28;20299;-68
2022/01/15 02:28:30;;;;;;;10.35;3.35;;;;;;;;;;4807108;28;20022;-68
2022/01/15 02:31:00;;;;;;;12.88;3.80;;;;;;;;;;4804802;28;20064;-68
2022/01/15 02:33:29;;;;;;;8.88;3.25;;;;;;;;;;4805078;28;20659;-68
2022/01/15 02:36:00;;;;;;;9.90;3.47;;;;;;;;;;4803484;28;20056;-70
2022/01/15 02:38:28;;;;;;;8.98;3.13;;;;;;;;;;4805933;28;20026;-68
2022/01/15 02:40:56;;;;;;;11.93;3.85;;;;;;;;;;4804962;28;20038;-68
2022/01/15 02:43:31;;;;;;;9.15;3.45;;;;;;;;;;4805017;28;20088;-67
2022/01/15 02:46:20;;;;;;;10.82;3.30;;;;;;;;;;4804107;28;20084;-67
2022/01/15 02:48:52;;;;;;;9.40;2.90;;;;;;;;;;4805739;28;20147;-67
2022/01/15 02:51:23;;;;;;;10.57;3.20;;;;;;;;;;4804495;28;20037;-66
2022/01/15 02:53:55;;;;;;;7.38;2.60;;;;;;;;;;4800324;28;20780;-68
2022/01/15 02:56:23;;;;;;;8.23;2.63;;;;;;;;;;4804290;28;20883;-67
2022/01/15 02:58:51;;;;;;;9.25;3.08;;;;;;;;;;4802360;28;20531;-67
2022/01/15 03:01:19;;;;;;;9.98;3.25;;;;;;;;;;4800821;28;20066;-67
2022/01/15 03:03:48;;;;;;;9.85;3.00;;;;;;;;;;4804219;28;20026;-67
2022/01/15 03:06:18;;;;;;;8.02;2.47;;;;;;;;;;4801800;28;20037;-67
2022/01/15 03:08:48;;;;;;;11.10;2.67;;;;;;;;;;4802792;28;20449;-67
2022/01/15 03:11:16;;;;;;;9.73;2.95;;;;;;;;;;4803693;28;20182;-66
2022/01/15 03:13:51;;;;;;;9.00;2.70;;;;;;;;;;4804737;28;20468;-67
2022/01/15 03:16:22;;;;;;;8.40;2.60;;;;;;;;;;4802414;28;20038;-67
2022/01/15 03:18:50;;;;;;;8.15;2.40;;;;;;;;;;4802873;28;20044;-67
2022/01/15 03:21:20;;;;;;;9.35;2.67;;;;;;;;;;4803830;28;23321;-67
2022/01/15 03:23:51;;;;;;;9.73;3.15;;;;;;;;;;4801644;28;20144;-66
2022/01/15 03:26:21;;;;;;;11.15;3.90;;;;;;;;;;4801735;28;20153;-67
2022/01/15 03:28:53;;;;;;;11.43;2.83;;;;;;;;;;4785240;28;21361;-67
2022/01/15 03:31:23;;;;;;;8.88;2.83;;;;;;;;;;4799411;28;20053;-70
2022/01/15 03:33:51;;;;;;;9.13;2.95;;;;;;;;;;4804153;28;20600;-67
2022/01/15 03:36:24;;;;;;;11.30;2.80;;;;;;;;;;4802260;28;20029;-68
2022/01/15 03:38:54;;;;;;;9.57;3.22;;;;;;;;;;4802060;28;20136;-68
2022/01/15 03:41:23;;;;;;;8.65;2.80;;;;;;;;;;4803491;28;20038;-68
2022/01/15 03:43:52;;;;;;;10.25;2.78;;;;;;;;;;4803312;28;20550;-67
2022/01/15 03:46:25;;;;;;;9.40;2.70;;;;;;;;;;4803099;28;20076;-67
2022/01/15 03:48:51;;;;;;;9.63;2.88;;;;;;;;;;4804174;28;20065;-67
2022/01/15 03:51:19;;;;;;;9.02;2.67;;;;;;;;;;4801446;28;20681;-67
2022/01/15 03:53:49;;;;;;;9.35;2.70;;;;;;;;;;4802349;28;20037;-68
2022/01/15 03:56:16;;;;;;;9.95;2.83;;;;;;;;;;4791743;28;20030;-67
2022/01/15 03:58:47;;;;;;;7.25;2.50;;;;;;;;;;4802635;28;20789;-69
2022/01/15 04:01:13;;;;;;;8.48;2.70;;;;;;;;;;4805135;28;20062;-67
2022/01/15 04:03:43;;;;;;;8.65;2.40;;;;;;;;;;4803081;28;20735;-67
2022/01/15 04:06:11;;;;;;;7.93;2.15;;;;;;;;;;4803796;28;20037;-69
2022/01/15 04:08:38;;;;;;;7.57;2.50;;;;;;;;;;4802643;28;20532;-68
2022/01/15 04:11:07;;;;;;;12.02;2.90;;;;;;;;;;4793171;28;20052;-67
2022/01/15 04:13:34;;;;;;;9.90;2.47;;;;;;;;;;4804244;28;20037;-67
2022/01/15 04:16:00;;;;;;;7.97;2.17;;;;;;;;;;4808737;28;20080;-67
2022/01/15 04:18:35;;;;;;;9.23;2.45;;;;;;;;;;4806451;28;20135;-67
2022/01/15 04:21:03;;;;;;;9.02;2.30;;;;;;;;;;4805943;28;20304;-67
2022/01/15 04:23:31;;;;;;;7.75;2.25;;;;;;;;;;4802263;28;20135;-67
2022/01/15 04:25:59;;;;;;;7.70;2.45;;;;;;;;;;4807094;28;20168;-67
2022/01/15 04:28:29;;;;;;;9.60;2.72;;;;;;;;;;4805134;28;20103;-67
2022/01/15 04:31:04;;;;;;;9.45;2.40;;;;;;;;;;4803670;28;20026;-67
2022/01/15 04:33:36;;;;;;;6.68;2.00;;;;;;;;;;4804965;28;20046;-67
2022/01/15 04:36:05;;;;;;;7.88;2.03;;;;;;;;;;4807083;28;20116;-67
2022/01/15 04:38:35;;;;;;;7.55;2.00;;;;;;;;;;4786124;28;20111;-67
2022/01/15 04:41:03;;;;;;;8.75;2.17;;;;;;;;;;4807063;28;20073;-67
2022/01/15 04:43:30;;;;;;;9.52;2.30;;;;;;;;;;4787477;28;20050;-67
2022/01/15 04:45:57;;;;;;;8.02;2.50;;;;;;;;;;4807480;28;20120;-67
2022/01/15 04:48:26;;;;;;;8.15;2.40;;;;;;;;;;4805225;28;20044;-67
2022/01/15 04:50:53;;;;;;;8.50;2.53;;;;;;;;;;4808806;28;20041;-66
2022/01/15 04:53:30;;;;;;;8.45;2.33;;;;;;;;;;4805619;28;20150;-66
2022/01/15 04:56:06;;;;;;;10.48;2.33;;;;;;;;;;4802105;28;20074;-67
2022/01/15 04:58:34;;;;;;;9.40;2.70;;;;;;;;;;4805299;28;20157;-67
2022/01/15 05:01:03;;;;;;;9.13;2.63;;;;;;;;;;4807233;28;21095;-69
2022/01/15 05:03:39;;;;;;;9.25;2.45;;;;;;;;;;4807336;28;20501;-67
2022/01/15 05:06:09;;;;;;;7.30;2.13;;;;;;;;;;4805572;28;20511;-68
2022/01/15 05:08:41;;;;;;;8.93;2.42;;;;;;;;;;4804686;28;22504;-68
2022/01/15 05:11:15;;;;;;;9.90;2.55;;;;;;;;;;4805085;28;21123;-67
2022/01/15 05:13:43;;;;;;;7.05;2.25;;;;;;;;;;4805956;28;20387;-67
2022/01/15 05:16:11;;;;;;;7.40;2.15;;;;;;;;;;4806431;28;20070;-67
2022/01/15 05:18:39;;;;;;;7.43;2.45;;;;;;;;;;4807051;28;20060;-67
2022/01/15 05:21:07;;;;;;;7.60;2.40;;;;;;;;;;4801310;28;20038;-67
2022/01/15 05:23:35;;;;;;;8.05;2.50;;;;;;;;;;4806520;28;20030;-67
2022/01/15 05:26:06;;;;;;;7.25;2.30;;;;;;;;;;4807568;28;20065;-67
2022/01/15 05:28:33;;;;;;;10.15;2.80;;;;;;;;;;4807930;28;20046;-67
2022/01/15 05:31:01;;;;;;;7.63;2.45;;;;;;;;;;4806825;28;20042;-67
2022/01/15 05:33:29;;;;;;;8.63;2.42;;;;;;;;;;4804839;28;20144;-67
2022/01/15 05:35:58;;;;;;;8.57;2.95;;;;;;;;;;4806041;28;20855;-67
2022/01/15 05:38:27;;;;;;;8.98;2.65;;;;;;;;;;4804954;28;20781;-67
2022/01/15 05:40:56;;;;;;;9.50;2.88;;;;;;;;;;4805128;28;20041;-69
2022/01/15 05:43:24;;;;;;;9.88;2.90;;;;;;;;;;4807482;28;20038;-68
2022/01/15 05:45:53;;;;;;;7.38;2.05;;;;;;;;;;4807736;28;20144;-68
2022/01/15 05:48:22;;;;;;;8.13;2.10;;;;;;;;;;4804955;28;20057;-69
2022/01/15 05:50:51;;;;;;;7.45;2.22;;;;;;;;;;4805048;28;20508;-67
2022/01/15 05:53:20;;;;;;;9.38;2.70;;;;;;;;;;4805213;28;20045;-67
2022/01/15 05:55:47;;;;;;;8.77;2.30;;;;;;;;;;4805113;28;20030;-67
2022/01/15 05:58:16;;;;;;;7.10;2.40;;;;;;;;;;4804337;28;20120;-68
2022/01/15 06:00:44;;;;;;;6.90;2.20;;;;;;;;;;4806516;28;20026;-67
2022/01/15 06:03:11;;;;;;;7.75;2.30;;;;;;;;;;4804952;28;20404;-67
2022/01/15 06:05:40;;;;;;;8.18;2.22;;;;;;;;;;4805824;28;20061;-67
2022/01/15 06:08:09;;;;;;;6.68;2.15;;;;;;;;;;4804500;28;20932;-68
2022/01/15 06:10:38;;;;;;;9.48;2.40;;;;;;;;;;4805836;28;20034;-67
2022/01/15 06:13:06;;;;;;;6.50;2.28;;;;;;;;;;4794597;28;20089;-67
2022/01/15 06:15:37;;;;;;;9.00;2.58;;;;;;;;;;4804768;28;20465;-67
2022/01/15 06:18:05;;;;;;;7.63;2.38;;;;;;;;;;4802550;28;20068;-67
2022/01/15 06:20:35;;;;;;;7.45;2.53;;;;;;;;;;4802127;28;20126;-66
2022/01/15 06:23:03;;;;;;;8.38;2.30;;;;;;;;;;4809275;28;20048;-67
2022/01/15 06:25:31;;;;;;;7.10;2.10;;;;;;;;;;4787282;28;20041;-67
2022/01/15 06:28:00;;;;;;;6.38;2.10;;;;;;;;;;4803241;28;20034;-67
2022/01/15 06:30:31;;;;;;;9.27;2.60;;;;;;;;;;4806008;28;20048;-67
2022/01/15 06:32:59;;;;;;;10.30;2.47;;;;;;;;;;4803905;28;21102;-67
2022/01/15 06:35:35;;;;;;;8.00;2.42;;;;;;;;;;4795530;28;21820;-67
2022/01/15 06:38:05;;;;;;;9.68;2.60;;;;;;;;;;4804303;28;20026;-67
2022/01/15 06:40:35;;;;;;;9.10;2.60;;;;;;;;;;4802561;28;21012;-67
2022/01/15 06:43:02;;;;;;;9.77;2.63;;;;;;;;;;4801549;28;20040;-67
2022/01/15 06:45:32;;;;;;;7.78;2.55;;;;;;;;;;4803617;28;20110;-67
2022/01/15 06:48:01;;;;;;;10.45;2.70;;;;;;;;;;4803436;28;20025;-67
2022/01/15 06:50:31;;;;;;;8.65;2.72;;;;;;;;;;4792741;28;20201;-67
2022/01/15 06:52:58;;;;;;;8.80;2.67;;;;;;;;;;4801754;28;20096;-67
2022/01/15 06:55:26;;;;;;;;;;;;;;;;;;4804356;28;20639;-67
2022/01/15 06:57:56;;;;;;;9.38;2.75;;;;;;;;;;4806146;28;20030;-68
2022/01/15 07:00:25;;;;;;;9.38;3.10;;;;;;;;;;4802861;28;20901;-66
2022/01/15 07:02:52;;;;;;;7.63;2.50;;;;;;;;;;4806153;28;20547;-66
2022/01/15 07:05:20;;;;;;;;;;;;;;;;;;4805671;28;20431;-66
2022/01/15 07:07:48;;;;;;;8.82;3.40;;;;;;;;;;4804964;28;20004;-66
2022/01/15 07:10:16;;;;;;;10.35;3.50;;;;;;;;;;4801046;28;20049;-66
2022/01/15 07:12:45;;;;;;;11.23;3.40;;;;;;;;;;4803866;28;20033;-67
2022/01/15 07:15:15;;;;;;;12.70;3.15;;;;;;;;;;4803505;28;21189;-66
2022/01/15 07:17:50;;;;;;;9.57;3.60;;;;;;;;;;4803109;28;20128;-67
2022/01/15 07:20:22;;;;;;;11.48;3.60;;;;;;;;;;4804847;28;20842;-67
2022/01/15 07:22:51;;;;;;;12.02;3.42;;;;;;;;;;4802336;28;20173;-66
2022/01/15 07:25:17;;;;;;;9.57;3.42;;;;;;;;;;4803523;28;20046;-67
2022/01/15 07:27:46;;;;;;;11.68;3.55;;;;;;;;;;4805307;28;20050;-68
2022/01/15 07:30:16;;;;;;;10.25;3.38;;;;;;;;;;4804797;28;20045;-67
2022/01/15 07:32:46;;;;;;;9.45;3.40;;;;;;;;;;4802630;28;22499;-67
2022/01/15 07:35:14;;;;;;;9.40;3.35;;;;;;;;;;4803412;28;20045;-67
2022/01/15 07:37:47;;;;;;;10.13;3.60;;;;;;;;;;4793002;28;20635;-68
2022/01/15 07:40:16;;;;;;;11.18;3.58;;;;;;;;;;4803207;28;20622;-67
2022/01/15 07:42:46;;;;;;;8.75;3.47;;;;;;;;;;4804669;28;20030;-68
2022/01/15 07:45:15;;;;;;;9.80;3.92;;;;;;;;;;4804363;28;20502;-68
2022/01/15 07:47:43;;;;;;;10.27;4.22;;;;;;;;;;4806916;28;20438;-68
2022/01/15 07:50:11;;;;;;;9.60;3.60;;;;;;;;;;4809740;28;20129;-67
2022/01/15 07:52:39;;;;;;;10.00;3.67;;;;;;;;;;4809194;28;20044;-67
2022/01/15 07:55:06;;;;;;;9.02;3.45;;;;;;;;;;4807213;28;20808;-68
2022/01/15 07:57:37;;;;;;;9.98;3.67;;;;;;;;;;4807065;28;21221;-67
2022/01/15 08:00:07;;;;;;;9.50;3.70;;;;;;;;;;4809203;28;20040;-67
2022/01/15 08:02:34;;;;;;;11.27;3.88;;;;;;;;;;4808811;28;20068;-68
2022/01/15 08:05:03;;;;;;;9.13;3.50;;;;;;;;;;4806167;28;20052;-68
2022/01/15 08:07:30;;;;;;;9.82;3.58;;;;;;;;;;4805677;28;20192;-68
2022/01/15 08:10:03;;;;;;;12.20;3.30;;;;;;;;;;4805894;28;20635;-68
2022/01/15 08:12:31;;;;;;;9.80;3.60;;;;;;;;;;4807148;28;20049;-68
2022/01/15 08:14:58;;;;;;;8.52;3.20;;;;;;;;;;4803553;28;20338;-68
2022/01/15 08:17:25;;;;;;;;;;;;;;;;;;4807666;28;20968;-68
2022/01/15 08:19:51;;;;;;;9.30;3.47;;;;;;;;;;4807169;28;19970;-67
2022/01/15 08:22:19;;;;;;;13.73;4.00;;;;;;;;;;4809061;28;20041;-68
2022/01/15 08:24:50;;;;;;;12.50;3.80;;;;;;;;;;4808043;28;20827;-67
2022/01/15 08:27:16;;;;;;;12.00;4.50;;;;;;;;;;4807591;28;20189;-68
2022/01/15 08:29:43;;;;;;;;;;;;;;;;;;4807329;28;20612;-68
2022/01/15 08:32:15;;;;;;;11.60;3.65;;;;;;;;;;4806513;28;19925;-68
2022/01/15 08:34:47;;;;;;;9.77;3.70;;;;;;;;;;4807045;28;20038;-68
2022/01/15 08:37:14;;;;;;;13.13;6.15;;;;;;;;;;4805724;28;20128;-68
2022/01/15 08:39:41;;;;;;;18.33;10.02;;;;;;;;;;4805697;28;20671;-68
2022/01/15 08:42:09;;;;;;;;;;;;;;;;;;4809500;28;20164;-68
2022/01/15 08:44:42;;;;;;;35.95;21.75;;;;;;;;;;4807601;28;19928;-68
2022/01/15 08:47:10;;;;;;;42.40;28.23;;;;;;;;;;4805423;28;20482;-68
2022/01/15 08:49:39;;;;;;;47.00;28.63;;;;;;;;;;4807854;28;21488;-68
2022/01/15 08:52:10;;;;;;;41.22;24.38;;;;;;;;;;4803420;28;20665;-68
2022/01/15 08:54:37;;;;;;;48.42;29.77;;;;;;;;;;4805738;28;21992;-68
2022/01/15 08:57:04;;;;;;;40.30;26.23;;;;;;;;;;4803075;28;20018;-69
2022/01/15 08:59:30;;;;;;;;;;;;;;;;;;4806691;28;20683;-68
2022/01/15 09:02:00;;;;;;;34.58;20.08;;;;;;;;;;4807553;28;19921;-69
2022/01/15 09:04:28;;;;;;;25.88;15.38;;;;;;;;;;4805564;28;20156;-68
2022/01/15 09:06:59;;;;;;;24.08;13.95;;;;;;;;;;4805772;28;20357;-68
2022/01/15 09:09:25;;;;;;;17.77;9.57;;;;;;;;;;4803670;28;20034;-68
2022/01/15 09:11:53;;;;;;;;;;;;;;;;;;4805133;28;21139;-68
2022/01/15 09:14:20;;;;;;;16.50;8.00;;;;;;;;;;4806382;28;19924;-68
2022/01/15 09:16:49;;;;;;;15.02;6.60;;;;;;;;;;4803960;28;20649;-68
2022/01/15 09:19:17;;;;;;;17.45;7.63;;;;;;;;;;4804070;28;20030;-68
2022/01/15 09:21:47;;;;;;;17.13;8.40;;;;;;;;;;4802209;28;20155;-68
2022/01/15 09:24:17;;;;;;;19.63;10.90;;;;;;;;;;4802719;28;20096;-68
2022/01/15 09:32:11;;;;;;;24.35;13.98;;;;;;;;;;4807451;28;20669;-68
2022/01/15 09:34:39;;;;;;;23.63;15.00;;;;;;;;;;4806395;28;22210;-69
2022/01/15 09:37:07;;;;;;;26.20;15.05;;;;;;;;;;4807569;28;20033;-68
2022/01/15 09:39:37;;;;;;;21.65;14.07;;;;;;;;;;4806062;28;20144;-68
2022/01/15 09:42:06;;;;;;;23.90;15.05;;;;;;;;;;4807058;28;20041;-67
2022/01/15 09:44:39;;;;;;;22.10;12.10;;;;;;;;;;4804807;28;20049;-67
2022/01/15 09:47:09;;;;;;;20.75;12.18;;;;;;;;;;4805862;28;20046;-67
2022/01/15 09:49:38;;;;;;;19.77;10.73;;;;;;;;;;4806381;28;20175;-68
2022/01/15 09:52:08;;;;;;;16.58;9.60;;;;;;;;;;4807024;28;20062;-68
2022/01/15 09:54:37;;;;;;;14.18;7.55;;;;;;;;;;4806641;28;22604;-68
2022/01/15 09:57:08;;;;;;;16.10;8.20;;;;;;;;;;4804868;28;20049;-69
2022/01/15 09:59:36;;;;;;;13.52;7.38;;;;;;;;;;4805118;28;20030;-68
2022/01/15 10:02:06;;;;;;;16.60;7.82;;;;;;;;;;4805356;28;21813;-68
2022/01/15 10:04:35;;;;;;;12.75;5.90;;;;;;;;;;4796031;28;20041;-67
2022/01/15 10:07:09;;;;;;;13.45;7.40;;;;;;;;;;4800260;28;20140;-68
2022/01/15 10:09:38;;;;;;;17.02;9.48;;;;;;;;;;4803575;28;20049;-68
2022/01/15 10:12:08;;;;;;;14.60;8.02;;;;;;;;;;4803404;28;20765;-68
2022/01/15 10:14:44;;;;;;;13.05;6.45;;;;;;;;;;4794342;28;20055;-68
2022/01/15 10:17:32;;;;;;;13.43;6.32;;;;;;;;;;4803131;28;20048;-68
2022/01/15 10:20:25;;;;;;;12.57;6.50;;;;;;;;;;4824598;28;20377;-68
2022/01/15 10:22:54;;;;;;;14.32;6.40;;;;;;;;;;4804128;28;20048;-68
2022/01/15 10:25:23;;;;;;;13.68;6.63;;;;;;;;;;4805787;28;20044;-70
2022/01/15 10:28:13;;;;;;;11.55;4.65;;;;;;;;;;4805674;28;20053;-69
2022/01/15 10:30:46;;;;;;;11.27;3.55;;;;;;;;;;4805413;28;20038;-69
2022/01/15 10:33:13;;;;;;;10.02;3.65;;;;;;;;;;4805305;28;20142;-69
2022/01/15 10:35:46;;;;;;;9.52;4.35;;;;;;;;;;4805776;28;20029;-68
2022/01/15 10:38:17;;;;;;;12.05;4.80;;;;;;;;;;4805314;28;20148;-69
2022/01/15 10:40:48;;;;;;;9.95;3.50;;;;;;;;;;4803731;28;20038;-69
2022/01/15 10:43:18;;;;;;;11.80;4.32;;;;;;;;;;4806325;28;20088;-69
2022/01/15 10:46:15;;;;;;;11.23;3.75;;;;;;;;;;4805681;28;20049;-69
2022/01/15 10:48:45;;;;;;;10.73;4.13;;;;;;;;;;4843252;28;20080;-69
2022/01/15 10:51:13;;;;;;;9.82;3.97;;;;;;;;;;4802540;28;20128;-69
2022/01/15 10:53:46;;;;;;;11.60;4.78;;;;;;;;;;4805897;28;20026;-70
2022/01/15 10:56:15;;;;;;;10.30;4.70;;;;;;;;;;4803733;28;22351;-69
2022/01/15 10:58:46;;;;;;;10.05;4.20;;;;;;;;;;4803927;28;20034;-69
2022/01/15 11:01:30;;;;;;;9.85;4.00;;;;;;;;;;4804306;28;20045;-69
2022/01/15 11:03:57;;;;;;;11.35;3.70;;;;;;;;;;4805900;28;20033;-70
2022/01/15 11:06:37;;;;;;;10.93;3.70;;;;;;;;;;4806637;28;20026;-70
2022/01/15 11:09:07;;;;;;;11.45;4.00;;;;;;;;;;4805832;28;20123;-69
2022/01/15 11:11:33;;;;;;;11.02;4.03;;;;;;;;;;4804332;28;20147;-69
2022/01/15 11:14:02;;;;;;;11.25;3.95;;;;;;;;;;4805740;28;20276;-69
2022/01/15 11:16:29;;;;;;;10.73;4.40;;;;;;;;;;4806529;28;20138;-70
2022/01/15 11:18:58;;;;;;;10.00;4.05;;;;;;;;;;4808023;28;20088;-69
2022/01/15 11:21:31;;;;;;;11.15;4.45;;;;;;;;;;4804706;28;20298;-69
2022/01/15 11:24:06;;;;;;;11.52;4.97;;;;;;;;;;4806348;28;20615;-69
2022/01/15 11:26:36;;;;;;;12.15;5.35;;;;;;;;;;4803063;28;20168;-68
2022/01/15 11:29:05;;;;;;;12.63;6.60;;;;;;;;;;4804874;28;20049;-70
2022/01/15 11:31:35;;;;;;;10.05;4.85;;;;;;;;;;4805713;28;22068;-69
2022/01/15 11:34:16;;;;;;;11.13;3.97;;;;;;;;;;4794843;28;20054;-69
2022/01/15 11:36:44;;;;;;;10.73;3.63;;;;;;;;;;4805249;28;20042;-69
2022/01/15 11:39:14;;;;;;;10.35;4.47;;;;;;;;;;4805264;28;20034;-68
2022/01/15 11:41:42;;;;;;;13.02;5.40;;;;;;;;;;4802046;28;20128;-70
2022/01/15 11:44:27;;;;;;;10.27;4.07;;;;;;;;;;4804039;28;23186;-69
2022/01/15 11:46:56;;;;;;;10.73;3.90;;;;;;;;;;4806112;28;20041;-68
2022/01/15 11:49:29;;;;;;;9.05;3.13;;;;;;;;;;4803399;28;20196;-68
2022/01/15 11:52:14;;;;;;;9.63;3.80;;;;;;;;;;4804641;28;20838;-68
2022/01/15 11:55:04;;;;;;;12.70;4.30;;;;;;;;;;4805198;28;20037;-71
2022/01/15 11:57:33;;;;;;;9.18;3.40;;;;;;;;;;4805530;28;20768;-70
2022/01/15 12:00:02;;;;;;;10.65;4.20;;;;;;;;;;4805039;28;20623;-72
2022/01/15 12:02:32;;;;;;;11.13;4.25;;;;;;;;;;4805333;28;20042;-69
2022/01/15 12:05:20;;;;;;;8.60;2.78;;;;;;;;;;4805643;28;20136;-67
2022/01/15 12:07:49;;;;;;;10.27;3.97;;;;;;;;;;4805606;28;20034;-68
2022/01/15 12:10:18;;;;;;;10.27;4.03;;;;;;;;;;4805562;28;20449;-64
2022/01/15 12:12:52;;;;;;;10.00;3.47;;;;;;;;;;4804219;28;20689;-66
2022/01/15 12:15:30;;;;;;;9.02;3.15;;;;;;;;;;4803112;28;20042;-66
2022/01/15 12:18:00;;;;;;;8.50;3.15;;;;;;;;;;4802204;28;20112;-66
2022/01/15 12:20:31;;;;;;;7.93;2.75;;;;;;;;;;4792592;28;20753;-66
2022/01/15 12:23:02;;;;;;;9.23;3.55;;;;;;;;;;4805156;28;20409;-66
2022/01/15 12:25:34;;;;;;;10.00;3.65;;;;;;;;;;4803139;28;20425;-66
2022/01/15 12:28:05;;;;;;;10.50;4.25;;;;;;;;;;4802436;28;20271;-66
2022/01/15 12:30:40;;;;;;;8.30;2.65;;;;;;;;;;4802440;28;20650;-65
2022/01/15 12:33:12;;;;;;;9.82;3.05;;;;;;;;;;4803831;28;20057;-65
2022/01/15 12:35:47;;;;;;;8.13;2.72;;;;;;;;;;4806945;28;20088;-66
2022/01/15 12:38:15;;;;;;;9.20;3.13;;;;;;;;;;4804377;28;20057;-66
2022/01/15 12:40:44;;;;;;;10.23;3.33;;;;;;;;;;4807101;28;20038;-66
2022/01/15 12:43:17;;;;;;;8.32;3.03;;;;;;;;;;4807093;28;20080;-66
2022/01/15 12:45:47;;;;;;;7.78;2.72;;;;;;;;;;4808375;28;21501;-66
2022/01/15 12:48:17;;;;;;;7.20;2.42;;;;;;;;;;4803858;28;20184;-66
2022/01/15 12:50:48;;;;;;;8.93;2.42;;;;;;;;;;4808315;28;20037;-68
2022/01/15 12:53:17;;;;;;;7.53;2.33;;;;;;;;;;4804772;28;20041;-69
2022/01/15 12:55:45;;;;;;;7.30;2.50;;;;;;;;;;4807267;28;20103;-69
2022/01/15 12:58:17;;;;;;;8.10;2.28;;;;;;;;;;4806686;28;20030;-68
2022/01/15 13:00:45;;;;;;;8.10;2.35;;;;;;;;;;4803070;28;20449;-67
2022/01/15 13:03:13;;;;;;;8.50;2.47;;;;;;;;;;4805169;28;21966;-67
2022/01/15 13:05:44;;;;;;;6.50;2.10;;;;;;;;;;4806025;28;20715;-68
2022/01/15 13:08:21;;;;;;;6.72;1.83;;;;;;;;;;4803487;28;20042;-68
2022/01/15 13:10:53;;;;;;;7.10;2.00;;;;;;;;;;4804345;28;22043;-68
2022/01/15 13:13:33;;;;;;;8.57;2.67;;;;;;;;;;4806856;28;20188;-67
2022/01/15 13:16:03;;;;;;;7.38;2.63;;;;;;;;;;4806142;28;20131;-67
2022/01/15 13:18:34;;;;;;;9.50;2.72;;;;;;;;;;4807483;28;20583;-71
2022/01/15 13:21:02;;;;;;;6.68;2.08;;;;;;;;;;4809718;28;20897;-71
2022/01/15 13:23:45;;;;;;;9.23;2.50;;;;;;;;;;4806498;28;20038;-72
2022/01/15 13:26:16;;;;;;;8.15;3.00;;;;;;;;;;4806291;28;20041;-72
2022/01/15 13:28:50;;;;;;;9.88;3.58;;;;;;;;;;4807244;28;20776;-72
2022/01/15 13:31:20;;;;;;;10.75;4.30;;;;;;;;;;4806627;28;20053;-71
2022/01/15 13:33:47;;;;;;;9.85;3.80;;;;;;;;;;4805812;28;20754;-72
2022/01/15 13:36:15;;;;;;;10.82;3.67;;;;;;;;;;4806551;28;21037;-71
2022/01/15 13:38:45;;;;;;;9.95;3.45;;;;;;;;;;4805418;28;20128;-73
2022/01/15 13:41:23;;;;;;;9.25;3.10;;;;;;;;;;4807603;28;20049;-72
2022/01/15 13:43:56;;;;;;;11.13;3.67;;;;;;;;;;4805438;28;20042;-72
2022/01/15 13:46:34;;;;;;;9.95;3.50;;;;;;;;;;4805261;28;20048;-72
2022/01/15 13:49:09;;;;;;;8.52;3.13;;;;;;;;;;4803650;28;20394;-72
2022/01/15 13:54:37;;;;;;;6.38;1.70;;;;;;;;;;4805954;28;20104;-71
2022/01/15 13:57:06;;;;;;;6.93;2.10;;;;;;;;;;4809181;28;23163;-70
2022/01/15 13:59:32;;;;;;;8.23;2.88;;;;;;;;;;4805568;28;20139;-70
2022/01/15 14:02:00;;;;;;;6.90;2.30;;;;;;;;;;4807359;28;20675;-70
2022/01/15 14:04:41;;;;;;;7.22;2.05;;;;;;;;;;4802837;28;20710;-70
2022/01/15 14:07:13;;;;;;;8.25;2.80;;;;;;;;;;4804796;28;20126;-71
2022/01/15 14:09:46;;;;;;;8.85;3.15;;;;;;;;;;4806260;28;20574;-71
2022/01/15 14:12:15;;;;;;;9.65;3.33;;;;;;;;;;4807784;28;20111;-67
2022/01/15 14:15:05;;;;;;;8.07;3.10;;;;;;;;;;4781230;28;20038;-68
2022/01/15 14:17:34;;;;;;;10.45;4.47;;;;;;;;;;4805797;28;20738;-70
2022/01/15 14:20:14;;;;;;;11.85;5.30;;;;;;;;;;4806005;28;20040;-67
2022/01/15 14:22:51;;;;;;;10.07;3.85;;;;;;;;;;4806999;28;20406;-67
2022/01/15 14:25:23;;;;;;;10.32;4.60;;;;;;;;;;4803953;28;20046;-69
2022/01/15 14:28:05;;;;;;;10.70;4.20;;;;;;;;;;4811693;28;20075;-70
2022/01/15 14:30:35;;;;;;;12.32;8.43;;;;;;;;;;4804273;28;20052;-68
2022/01/15 14:33:02;;;;;;;13.80;8.88;;;;;;;;;;4802031;28;20053;-68
2022/01/15 14:35:30;;;;;;;11.18;5.55;;;;;;;;;;4816435;28;20386;-68
2022/01/15 14:37:57;;;;;;;12.77;8.02;;;;;;;;;;4796745;28;20992;-69
2022/01/15 14:40:27;;;;;;;9.40;4.57;;;;;;;;;;4802347;28;20093;-68
2022/01/15 14:42:55;;;;;;;10.07;3.15;;;;;;;;;;4806373;28;20767;-69
2022/01/15 14:45:21;;;;;;;6.68;2.22;;;;;;;;;;4804047;28;20836;-67
2022/01/15 14:47:51;;;;;;;6.72;1.88;;;;;;;;;;4806346;28;20335;-66
2022/01/15 14:50:20;;;;;;;5.70;1.80;;;;;;;;;;4804421;28;20030;-67
2022/01/15 14:52:48;;;;;;;7.05;1.80;;;;;;;;;;4794892;28;20038;-67
2022/01/15 14:55:19;;;;;;;6.00;2.20;;;;;;;;;;4804351;28;20172;-70
2022/01/15 14:57:46;;;;;;;8.25;2.20;;;;;;;;;;4917628;28;20032;-69
2022/01/15 15:00:13;;;;;;;6.75;1.90;;;;;;;;;;4932398;28;21904;-70
2022/01/15 15:02:39;;;;;;;10.02;3.05;;;;;;;;;;4800922;28;22243;-69
2022/01/15 15:05:10;;;;;;;8.18;2.20;;;;;;;;;;4802364;28;20289;-70
2022/01/15 15:07:38;;;;;;;6.15;2.00;;;;;;;;;;4803845;28;20044;-68
2022/01/15 15:10:06;;;;;;;6.13;1.90;;;;;;;;;;4804045;28;20061;-69
2022/01/15 15:12:40;;;;;;;8.85;2.33;;;;;;;;;;4830426;28;20123;-68
2022/01/15 15:15:14;;;;;;;7.38;2.22;;;;;;;;;;4986902;28;20076;-70
2022/01/15 15:17:41;;;;;;;8.70;2.67;;;;;;;;;;4825789;28;22659;-68
2022/01/15 15:20:08;;;;;;;8.20;2.33;;;;;;;;;;4805880;28;21701;-70